Time;durP1;ratioP1;P1;durP2;ratioP2;P2;SDS_P1;SDS_P2;PMS_P1;PMS_P2;Temp;Humidity;BMP_temperature;BMP_pressure;BME280_temperature;BME280_humidity;BME280_pressure;Samples;Min_cycle;Max_cycle;Signal;HPM_P1;HPM_P2
2022/04/25 00:00:56;;;;;;;19.35;6.50;;;;;;;8.49;73.20;100682.75;5089193;28;20581;-76
2022/04/25 00:03:21;;;;;;;19.13;6.75;;;;;;;8.46;73.82;100682.97;5089143;28;20036;-76
2022/04/25 00:05:47;;;;;;;19.15;6.55;;;;;;;8.42;73.60;100682.28;5089131;28;20028;-76
2022/04/25 00:08:12;;;;;;;17.70;5.90;;;;;;;8.35;73.34;100681.81;5090541;28;20104;-76
2022/04/25 00:10:38;;;;;;;17.92;6.20;;;;;;;8.28;73.74;100679.66;5089300;28;20020;-76
2022/04/25 00:13:03;;;;;;;19.70;6.75;;;;;;;8.23;73.99;100685.34;5090705;28;20023;-76
2022/04/25 00:15:29;;;;;;;18.20;6.10;;;;;;;8.19;74.13;100691.84;5090576;28;20024;-76
2022/04/25 00:17:54;;;;;;;19.50;6.72;;;;;;;8.14;74.09;100685.91;5090417;28;20035;-76
2022/04/25 00:20:20;;;;;;;18.67;6.95;;;;;;;8.09;74.73;100690.72;5090545;28;20440;-76
2022/04/25 00:22:46;;;;;;;20.50;7.07;;;;;;;8.02;74.44;100687.59;5078890;28;20028;-76
2022/04/25 00:25:12;;;;;;;21.27;7.85;;;;;;;7.96;74.54;100691.50;5070333;28;20025;-76
2022/04/25 00:27:37;;;;;;;19.75;7.90;;;;;;;7.93;75.20;100699.75;5068687;28;20435;-76
2022/04/25 00:30:03;;;;;;;19.90;7.20;;;;;;;7.91;74.97;100696.31;5070136;28;20418;-76
2022/04/25 00:32:28;;;;;;;18.75;6.85;;;;;;;7.82;75.20;100694.25;5068705;28;20052;-76
2022/04/25 00:34:54;;;;;;;18.85;6.60;;;;;;;7.77;75.16;100686.50;5070357;28;20062;-76
2022/04/25 00:37:20;;;;;;;16.17;6.32;;;;;;;7.70;75.99;100691.41;5070159;28;20032;-76
2022/04/25 00:39:45;;;;;;;19.70;6.97;;;;;;;7.64;76.61;100689.13;5072785;28;20047;-76
2022/04/25 00:42:10;;;;;;;19.27;7.03;;;;;;;7.62;75.78;100682.13;5072790;28;20024;-76
2022/04/25 00:44:36;;;;;;;22.23;7.40;;;;;;;7.58;75.52;100686.81;5074266;28;20043;-76
2022/04/25 00:47:02;;;;;;;20.25;7.30;;;;;;;7.50;76.20;100691.81;5077016;28;20140;-76
2022/04/25 00:49:28;;;;;;;20.63;6.68;;;;;;;7.46;76.07;100688.44;5094383;28;20126;-76
2022/04/25 00:51:53;;;;;;;19.60;6.82;;;;;;;7.41;76.12;100682.53;5094121;28;20363;-76
2022/04/25 00:54:22;;;;;;;19.00;7.18;;;;;;;7.34;76.82;100686.56;5078975;28;20361;-76
2022/04/25 00:56:48;;;;;;;20.13;7.20;;;;;;;7.25;76.75;100687.97;5073925;28;20119;-76
2022/04/25 00:59:20;;;;;;;22.40;7.20;;;;;;;7.20;76.98;100684.72;5074006;28;20069;-76
2022/04/25 01:01:46;;;;;;;19.70;7.53;;;;;;;7.15;77.30;100689.50;5074196;28;20026;-79
2022/04/25 01:04:11;;;;;;;23.27;8.23;;;;;;;7.14;77.33;100687.78;5072266;28;20027;-79
2022/04/25 01:06:37;;;;;;;21.40;7.43;;;;;;;7.15;77.35;100686.84;5072324;28;20039;-79
2022/04/25 01:09:04;;;;;;;19.73;7.25;;;;;;;7.07;77.58;100681.09;5073899;28;20089;-79
2022/04/25 01:11:29;;;;;;;21.08;6.72;;;;;;;7.04;77.42;100681.28;5072327;28;20032;-79
2022/04/25 01:13:55;;;;;;;19.92;8.38;;;;;;;6.97;77.73;100680.81;5072425;28;20035;-79
2022/04/25 01:16:20;;;;;;;20.77;7.28;;;;;;;6.92;78.16;100686.41;5073607;28;20436;-79
2022/04/25 01:18:46;;;;;;;19.23;7.82;;;;;;;6.89;77.84;100686.59;5091088;28;20495;-79
2022/04/25 01:21:13;;;;;;;19.63;8.45;;;;;;;6.85;77.98;100693.06;5093717;28;20097;-79
2022/04/25 01:29:08;;;;;;;20.90;8.10;;;;;;;6.80;78.62;100684.50;5093897;28;20552;-79
2022/04/25 01:31:33;;;;;;;22.55;8.43;;;;;;;6.73;78.71;100680.47;5092126;28;20032;-79
2022/04/25 01:33:59;;;;;;;20.40;8.43;;;;;;;6.72;78.97;100679.63;5092149;28;20035;-79
2022/04/25 01:36:24;;;;;;;20.17;8.27;;;;;;;6.67;78.86;100684.38;5093223;28;20124;-80
2022/04/25 01:38:51;;;;;;;24.85;9.65;;;;;;;6.63;78.91;100683.69;5093414;28;20430;-79
2022/04/25 01:41:17;;;;;;;20.17;8.00;;;;;;;6.60;79.30;100689.22;5091973;28;20040;-79
2022/04/25 01:43:42;;;;;;;20.70;8.48;;;;;;;6.57;79.69;100689.38;5041839;28;20029;-79
2022/04/25 01:46:07;;;;;;;22.10;8.30;;;;;;;6.55;79.51;100688.63;5053028;28;20107;-79
2022/04/25 01:48:32;;;;;;;19.15;7.40;;;;;;;6.54;79.27;100691.38;5086976;28;20090;-79
2022/04/25 01:50:58;;;;;;;24.65;8.25;;;;;;;6.52;79.63;100691.47;5092918;28;20468;-79
2022/04/25 01:53:23;;;;;;;20.70;8.13;;;;;;;6.51;79.90;100697.75;5093067;28;20024;-79
2022/04/25 01:55:48;;;;;;;21.92;8.65;;;;;;;6.49;79.63;100697.00;5093098;28;20032;-79
2022/04/25 01:58:14;;;;;;;21.05;9.48;;;;;;;6.46;79.66;100686.50;5091594;28;20547;-79
2022/04/25 02:00:39;;;;;;;21.40;7.68;;;;;;;6.44;79.94;100694.59;5091517;28;20024;-79
2022/04/25 02:03:05;;;;;;;21.55;8.60;;;;;;;6.40;79.68;100690.41;5091350;28;20025;-79
2022/04/25 02:05:30;;;;;;;23.73;9.70;;;;;;;6.38;80.37;100688.75;5092854;28;20364;-79
2022/04/25 02:07:56;;;;;;;20.45;9.23;;;;;;;6.37;80.31;100687.03;5092715;28;20083;-79
2022/04/25 02:10:21;;;;;;;22.67;8.18;;;;;;;6.33;80.80;100688.19;5091132;28;20040;-79
2022/04/25 02:12:46;;;;;;;21.65;8.50;;;;;;;6.29;80.81;100687.47;5090205;28;20059;-79
2022/04/25 02:15:13;;;;;;;23.20;8.88;;;;;;;6.23;80.01;100682.50;5090630;28;20035;-79
2022/04/25 02:17:44;;;;;;;19.75;9.07;;;;;;;6.24;80.69;100692.25;5081599;28;20059;-79
2022/04/25 02:20:11;;;;;;;23.08;9.07;;;;;;;6.22;80.36;100686.13;5071154;28;20028;-79
2022/04/25 02:22:37;;;;;;;23.52;8.65;;;;;;;6.21;80.08;100682.59;5062090;28;20051;-79
2022/04/25 02:25:03;;;;;;;23.27;8.20;;;;;;;6.21;80.27;100690.59;5052441;28;20099;-79
2022/04/25 02:27:28;;;;;;;23.63;9.52;;;;;;;6.21;80.78;100682.59;5050761;28;20025;-79
2022/04/25 02:29:57;;;;;;;20.70;8.25;;;;;;;6.22;81.22;100686.13;5052253;28;20024;-79
2022/04/25 02:32:23;;;;;;;20.83;9.02;;;;;;;6.21;80.93;100679.94;5050583;28;20043;-79
2022/04/25 02:34:50;;;;;;;27.48;10.15;;;;;;;6.19;81.40;100686.28;5050711;28;20127;-79
2022/04/25 02:37:15;;;;;;;21.90;8.57;;;;;;;6.19;80.93;100684.47;5051902;28;20055;-79
2022/04/25 02:39:41;;;;;;;22.70;8.98;;;;;;;6.17;80.70;100685.53;5052095;28;20449;-79
2022/04/25 02:42:06;;;;;;;21.42;9.23;;;;;;;6.14;80.61;100680.38;5050869;28;20433;-80
2022/04/25 02:44:31;;;;;;;19.40;8.10;;;;;;;6.10;80.84;100679.69;5052051;28;20391;-79
2022/04/25 02:46:56;;;;;;;21.38;8.90;;;;;;;6.04;81.15;100685.38;5057938;28;20447;-79
2022/04/25 02:49:22;;;;;;;21.88;9.68;;;;;;;6.00;81.36;100689.16;5092032;28;20043;-79
2022/04/25 02:51:47;;;;;;;22.27;9.57;;;;;;;5.98;81.22;100689.25;5091911;28;20032;-79
2022/04/25 02:54:12;;;;;;;22.02;8.73;;;;;;;5.95;81.25;100682.22;5090492;28;20047;-79
2022/04/25 02:56:37;;;;;;;24.30;9.20;;;;;;;5.89;81.04;100679.06;5090643;28;20028;-79
2022/04/25 02:59:03;;;;;;;21.00;8.77;;;;;;;5.83;81.24;100679.38;5090404;28;20039;-79
2022/04/25 03:01:28;;;;;;;22.17;9.48;;;;;;;5.80;80.96;100676.91;5090907;28;20035;-79
2022/04/25 03:03:53;;;;;;;21.52;8.63;;;;;;;5.75;81.56;100680.72;5090202;28;20028;-79
2022/04/25 03:06:19;;;;;;;20.58;8.27;;;;;;;5.74;81.46;100683.44;5089917;28;20387;-78
2022/04/25 03:08:44;;;;;;;20.23;8.95;;;;;;;5.73;81.73;100681.75;5091866;28;20024;-79
2022/04/25 03:11:10;;;;;;;22.77;8.98;;;;;;;5.69;81.34;100682.84;5086954;28;20052;-79
2022/04/25 03:13:36;;;;;;;22.35;9.15;;;;;;;5.61;81.57;100683.28;5069869;28;20028;-79
2022/04/25 03:16:03;;;;;;;27.73;9.75;;;;;;;5.55;81.51;100676.47;5071139;28;20028;-79
2022/04/25 03:18:29;;;;;;;24.83;9.30;;;;;;;5.55;81.64;100673.81;5071145;28;20025;-79
2022/04/25 03:20:55;;;;;;;21.92;8.82;;;;;;;5.54;82.10;100679.22;5069559;28;20050;-79
2022/04/25 03:23:22;;;;;;;22.15;9.52;;;;;;;5.49;81.66;100683.94;5071052;28;20064;-79
2022/04/25 03:25:48;;;;;;;22.55;9.23;;;;;;;5.47;82.19;100686.69;5071163;28;20116;-79
2022/04/25 03:28:14;;;;;;;21.73;9.52;;;;;;;5.44;82.15;100684.19;5071167;28;20063;-78
2022/04/25 03:30:41;;;;;;;24.00;9.88;;;;;;;5.40;82.63;100685.28;5069649;28;20090;-79
2022/04/25 03:33:06;;;;;;;25.30;9.65;;;;;;;5.38;82.94;100684.53;5069642;28;20077;-79
2022/04/25 03:35:32;;;;;;;23.10;10.70;;;;;;;5.36;82.51;100683.75;5070906;28;20039;-79
2022/04/25 03:37:59;;;;;;;22.27;10.43;;;;;;;5.35;82.78;100684.69;5069313;28;20032;-79
2022/04/25 03:40:24;;;;;;;20.85;9.48;;;;;;;5.36;83.22;100689.06;5070865;28;20067;-79
2022/04/25 03:42:49;;;;;;;24.48;10.85;;;;;;;5.33;83.02;100683.91;5060040;28;20399;-80
2022/04/25 03:45:16;;;;;;;21.67;10.13;;;;;;;5.32;82.88;100695.53;5049427;28;20032;-79
2022/04/25 03:47:43;;;;;;;24.92;10.35;;;;;;;5.31;82.99;100691.13;5070624;28;20490;-78
2022/04/25 03:50:10;;;;;;;24.85;10.07;;;;;;;5.24;83.07;100695.91;5091099;28;20063;-80
2022/04/25 03:52:40;;;;;;;22.48;9.88;;;;;;;5.21;82.93;100699.63;5089479;28;20127;-79
2022/04/25 03:58:00;;;;;;;22.08;9.52;;;;;;;5.21;82.57;100699.63;5091323;28;19915;-79
2022/04/25 04:00:26;;;;;;;23.15;10.43;;;;;;;5.18;83.03;100699.81;5090977;28;20499;-79
2022/04/25 04:02:52;;;;;;;23.13;10.18;;;;;;;5.15;83.22;100699.09;5090622;28;20069;-79
2022/04/25 04:05:18;;;;;;;21.50;9.60;;;;;;;5.14;82.84;100703.56;5090692;28;20042;-79
2022/04/25 04:07:43;;;;;;;21.42;9.48;;;;;;;5.11;83.07;100706.41;5089070;28;20034;-79
2022/04/25 04:10:09;;;;;;;25.10;10.65;;;;;;;5.07;83.40;100707.50;5089215;28;20026;-79
2022/04/25 04:12:35;;;;;;;24.08;9.93;;;;;;;5.04;83.53;100712.97;5090111;28;20493;-79
2022/04/25 04:15:06;;;;;;;26.60;10.10;;;;;;;5.02;83.58;100713.06;5090218;28;20167;-79
2022/04/25 04:17:32;;;;;;;23.30;10.45;;;;;;;5.01;83.19;100705.16;5089142;28;20393;-79
2022/04/25 04:19:57;;;;;;;26.75;10.95;;;;;;;4.99;83.49;100721.22;5089146;28;20123;-79
2022/04/25 04:22:29;;;;;;;24.23;10.32;;;;;;;5.00;83.36;100714.06;5090441;28;20111;-79
2022/04/25 04:24:59;;;;;;;22.65;11.18;;;;;;;4.99;82.92;100717.69;5090394;28;20443;-79
2022/04/25 04:27:25;;;;;;;;;;;;;;;5.07;81.00;100720.81;5090809;28;20030;-79
2022/04/25 04:29:50;;;;;;;27.75;10.93;;;;;;;4.98;83.26;100714.16;5090603;28;19995;-79
2022/04/25 04:32:15;;;;;;;24.25;10.95;;;;;;;4.97;83.46;100720.41;5062788;28;20028;-78
2022/04/25 04:34:40;;;;;;;24.33;11.98;;;;;;;4.97;83.90;100714.25;5070249;28;20028;-79
2022/04/25 04:37:06;;;;;;;24.77;11.52;;;;;;;4.96;83.82;100726.69;5068588;28;20099;-79
2022/04/25 04:39:32;;;;;;;22.98;11.38;;;;;;;4.93;84.35;100724.19;5069920;28;20043;-79
2022/04/25 04:41:57;;;;;;;24.48;11.38;;;;;;;4.92;84.24;100726.91;5070165;28;20060;-79
2022/04/25 04:44:23;;;;;;;24.02;10.48;;;;;;;4.90;84.70;100730.53;5068709;28;20115;-79
2022/04/25 04:46:48;;;;;;;24.23;11.20;;;;;;;4.89;84.29;100733.25;5072419;28;20425;-79
2022/04/25 04:49:14;;;;;;;26.92;10.55;;;;;;;4.93;85.05;100736.66;5090554;28;20016;-79
2022/04/25 04:51:40;;;;;;;27.25;11.45;;;;;;;4.95;84.42;100730.31;5090241;28;20031;-79
2022/04/25 04:54:05;;;;;;;23.40;11.45;;;;;;;4.95;84.73;100737.41;5088817;28;20028;-79
2022/04/25 04:56:31;;;;;;;24.95;11.48;;;;;;;4.93;84.68;100734.81;5090285;28;20020;-79
2022/04/25 04:58:58;;;;;;;23.48;10.20;;;;;;;4.93;84.96;100744.63;5088995;28;20027;-79
2022/04/25 05:01:23;;;;;;;23.40;10.63;;;;;;;4.93;84.71;100748.16;5090130;28;20057;-79
2022/04/25 05:03:50;;;;;;;26.10;11.80;;;;;;;4.95;84.82;100748.94;5088642;28;20514;-79
2022/04/25 05:06:15;;;;;;;25.38;12.15;;;;;;;5.03;85.42;100749.41;5089992;28;20052;-79
2022/04/25 05:08:41;;;;;;;23.20;11.93;;;;;;;5.08;85.58;100758.03;5088754;28;20469;-79
2022/04/25 05:11:09;;;;;;;25.00;11.75;;;;;;;5.13;85.41;100763.09;5085785;28;20107;-79
2022/04/25 05:13:36;;;;;;;23.13;11.30;;;;;;;5.17;85.57;100764.69;5069813;28;20387;-79
2022/04/25 05:16:02;;;;;;;23.10;11.63;;;;;;;5.21;85.50;100760.91;5069618;28;20510;-79
2022/04/25 05:18:27;;;;;;;28.50;11.52;;;;;;;5.30;86.38;100758.69;5086039;28;20028;-80
2022/04/25 05:20:53;;;;;;;24.80;13.18;;;;;;;5.37;86.36;100768.97;5088570;28;20037;-78
2022/04/25 05:23:20;;;;;;;24.58;12.23;;;;;;;5.46;86.99;100764.94;5089955;28;20066;-79
2022/04/25 05:25:46;;;;;;;27.30;12.23;;;;;;;5.57;86.81;100761.69;5091021;28;20040;-79
2022/04/25 05:28:11;;;;;;;25.13;13.02;;;;;;;5.67;87.07;100757.59;5092523;28;20541;-79
2022/04/25 05:30:36;;;;;;;25.50;12.98;;;;;;;5.78;87.46;100760.53;5092047;28;20034;-78
2022/04/25 05:33:02;;;;;;;25.65;13.43;;;;;;;5.88;88.34;100760.88;5093831;28;20028;-79
2022/04/25 05:35:29;;;;;;;28.75;13.18;;;;;;;6.01;88.43;100765.59;5092072;28;20081;-79
2022/04/25 05:37:55;;;;;;;25.27;12.80;;;;;;;6.12;88.18;100768.53;5092131;28;20024;-79
2022/04/25 05:40:21;;;;;;;26.38;14.35;;;;;;;6.20;88.17;100771.59;5091723;28;20044;-79
2022/04/25 05:42:48;;;;;;;30.27;14.98;;;;;;;6.29;88.08;100775.56;5084631;28;20440;-79
2022/04/25 05:45:15;;;;;;;25.85;13.48;;;;;;;6.40;88.32;100777.59;5071646;28;20024;-79
2022/04/25 05:47:40;;;;;;;25.13;13.00;;;;;;;6.50;88.49;100785.97;5081195;28;20123;-79
2022/04/25 05:52:52;;;;;;;27.83;13.88;;;;;;;6.61;87.21;100796.91;5092155;28;20521;-79
2022/04/25 05:55:17;;;;;;;28.40;14.45;;;;;;;6.66;87.47;100789.47;5093148;28;20032;-79
2022/04/25 05:57:43;;;;;;;26.92;13.77;;;;;;;6.70;87.30;100800.84;5091822;28;20059;-79
2022/04/25 06:00:11;;;;;;;26.45;14.43;;;;;;;6.74;87.45;100792.56;5093045;28;20040;-79
2022/04/25 06:02:40;;;;;;;27.20;13.98;;;;;;;6.79;86.74;100792.28;5091417;28;20451;-79
2022/04/25 06:05:07;;;;;;;27.05;14.70;;;;;;;6.81;87.23;100803.75;5091575;28;20488;-79
2022/04/25 06:07:33;;;;;;;25.70;14.05;;;;;;;6.86;87.25;100799.00;5092610;28;20040;-79
2022/04/25 06:10:00;;;;;;;29.25;15.48;;;;;;;6.89;86.82;100804.16;5092855;28;20502;-79
2022/04/25 06:12:26;;;;;;;25.38;14.35;;;;;;;6.96;86.77;100804.66;5091443;28;20035;-79
2022/04/25 06:14:53;;;;;;;27.05;14.18;;;;;;;7.00;86.58;100809.72;5091269;28;20047;-79
2022/04/25 06:17:19;;;;;;;29.13;15.82;;;;;;;7.06;86.37;100804.97;5084203;28;20024;-79
2022/04/25 06:19:44;;;;;;;27.20;14.32;;;;;;;7.10;86.78;100811.84;5071061;28;20028;-79
2022/04/25 06:22:09;;;;;;;29.17;15.27;;;;;;;7.15;86.33;100812.44;5070507;28;20174;-79
2022/04/25 06:24:35;;;;;;;32.13;14.25;;;;;;;7.22;86.46;100820.94;5071068;28;20107;-79
2022/04/25 06:27:02;;;;;;;26.27;14.77;;;;;;;7.23;86.14;100826.19;5072187;28;20028;-80
2022/04/25 06:29:29;;;;;;;29.65;14.95;;;;;;;7.25;86.56;100824.31;5070765;28;20029;-79
2022/04/25 06:31:54;;;;;;;25.00;14.38;;;;;;;7.31;86.14;100823.94;5064012;28;20056;-79
2022/04/25 06:34:20;;;;;;;28.17;14.05;;;;;;;7.33;85.59;100815.81;5050748;28;20068;-79
2022/04/25 06:36:45;;;;;;;30.02;14.82;;;;;;;7.37;86.35;100821.88;5049600;28;20045;-79
2022/04/25 06:39:10;;;;;;;28.20;14.43;;;;;;;7.40;85.52;100824.34;5052251;28;20083;-79
2022/04/25 06:41:35;;;;;;;30.35;15.73;;;;;;;7.45;85.64;100824.91;5050422;28;20412;-79
2022/04/25 06:44:01;;;;;;;28.73;13.65;;;;;;;7.49;85.02;100821.09;5050598;28;20063;-79
2022/04/25 06:46:28;;;;;;;31.52;15.32;;;;;;;7.53;85.79;100823.50;5051721;28;20040;-79
2022/04/25 06:51:37;;;;;;;30.52;15.88;;;;;;;7.61;85.44;100820.34;5092279;28;20055;-79
2022/04/25 06:54:02;;;;;;;28.58;16.42;;;;;;;7.66;85.43;100828.13;5090511;28;20012;-79
2022/04/25 06:56:28;;;;;;;27.95;15.48;;;;;;;7.72;85.99;100819.69;5090417;28;20024;-79
2022/04/25 06:58:53;;;;;;;28.25;14.45;;;;;;;7.77;85.32;100827.44;5092316;28;20028;-79
2022/04/25 07:01:18;;;;;;;30.88;16.27;;;;;;;7.80;85.19;100829.91;5090439;28;20445;-79
2022/04/25 07:03:44;;;;;;;31.38;16.10;;;;;;;7.83;85.22;100824.38;5090247;28;20032;-79
2022/04/25 07:06:09;;;;;;;26.90;14.98;;;;;;;7.88;85.29;100830.31;5090083;28;20035;-79
2022/04/25 07:08:34;;;;;;;29.08;16.52;;;;;;;7.92;85.34;100830.97;5091833;28;20024;-79
2022/04/25 07:10:59;;;;;;;27.50;15.50;;;;;;;7.96;85.13;100830.69;5088898;28;20030;-79
2022/04/25 07:13:25;;;;;;;32.80;16.58;;;;;;;7.99;85.15;100835.84;5071493;28;20055;-79
2022/04/25 07:15:50;;;;;;;31.38;16.40;;;;;;;8.03;85.14;100834.69;5071271;28;20028;-79
2022/04/25 07:18:16;;;;;;;27.83;16.73;;;;;;;8.04;84.99;100839.09;5086042;28;20361;-79
2022/04/25 07:20:42;;;;;;;31.45;17.33;;;;;;;8.08;85.23;100837.06;5091469;28;20031;-79
2022/04/25 07:28:51;;;;;;;29.10;16.27;;;;;;;8.27;85.32;100842.13;5091730;28;20043;-79
2022/04/25 07:31:17;;;;;;;29.50;17.10;;;;;;;8.31;84.75;100837.44;5075208;28;20115;-79
2022/04/25 07:33:43;;;;;;;30.20;17.88;;;;;;;8.36;85.04;100841.56;5091288;28;20538;-78
2022/04/25 07:36:09;;;;;;;28.88;17.00;;;;;;;8.38;84.38;100839.63;5091237;28;20060;-79
2022/04/25 07:38:35;;;;;;;28.48;16.75;;;;;;;8.43;85.22;100842.00;5089777;28;20472;-79
2022/04/25 07:41:01;;;;;;;29.15;17.20;;;;;;;8.45;84.65;100847.28;5089532;28;20503;-79
2022/04/25 07:43:27;;;;;;;29.50;16.35;;;;;;;8.50;84.65;100855.91;5090842;28;20431;-79
2022/04/25 07:45:53;;;;;;;34.10;18.30;;;;;;;8.52;84.18;100845.94;5089553;28;20081;-79
2022/04/25 07:48:18;;;;;;;29.45;16.90;;;;;;;8.54;83.65;100846.72;5089214;28;20020;-79
2022/04/25 07:50:44;;;;;;;31.27;16.23;;;;;;;8.57;84.18;100852.72;5090992;28;20035;-79
2022/04/25 07:53:09;;;;;;;30.90;18.20;;;;;;;8.61;83.83;100858.75;5090871;28;20383;-79
2022/04/25 07:55:35;;;;;;;32.67;17.85;;;;;;;8.64;83.45;100861.22;5089400;28;20023;-79
2022/04/25 07:58:01;;;;;;;29.05;17.38;;;;;;;8.65;83.29;100865.59;5089580;28;20034;-79
2022/04/25 08:00:27;;;;;;;30.98;18.65;;;;;;;8.66;83.30;100867.34;5085856;28;20028;-79
2022/04/25 08:02:52;;;;;;;30.27;18.23;;;;;;;8.67;83.54;100869.06;5070422;28;20046;-79
2022/04/25 08:05:17;;;;;;;33.40;17.73;;;;;;;8.66;83.31;100875.38;5069137;28;20107;-79
2022/04/25 08:07:43;;;;;;;31.85;17.95;;;;;;;8.65;82.99;100870.13;5070371;28;20388;-79
2022/04/25 08:10:08;;;;;;;32.35;18.88;;;;;;;8.62;82.72;100873.84;5069521;28;20027;-79
2022/04/25 08:18:01;;;;;;;32.38;18.67;;;;;;;8.57;83.47;100878.66;5083081;28;20100;-79
2022/04/25 08:20:34;;;;;;;33.05;19.42;;;;;;;8.57;84.24;100881.34;5089323;28;20425;-79
2022/04/25 08:23:01;;;;;;;28.50;17.52;;;;;;;8.53;84.38;100882.47;5090342;28;20085;-79
2022/04/25 08:25:30;;;;;;;34.42;18.67;;;;;;;8.47;84.79;100888.25;5090787;28;20647;-79
2022/04/25 08:27:55;;;;;;;31.48;19.25;;;;;;;8.43;85.53;100889.34;5089292;28;20020;-79
2022/04/25 08:30:21;;;;;;;31.05;19.45;;;;;;;8.44;86.64;100885.72;5089053;28;20031;-79
2022/04/25 08:32:47;;;;;;;29.60;18.50;;;;;;;8.42;86.06;100899.22;5075010;28;20047;-80
2022/04/25 08:35:13;;;;;;;35.50;19.17;;;;;;;8.42;86.86;100901.91;5068871;28;20064;-79
2022/04/25 08:37:39;;;;;;;33.00;20.13;;;;;;;8.44;88.32;100901.78;5051940;28;20391;-79
2022/04/25 08:40:05;;;;;;;31.60;20.20;;;;;;;8.45;88.82;100900.84;5070114;28;20123;-79
2022/04/25 08:42:31;;;;;;;30.65;19.88;;;;;;;8.43;88.34;100902.75;5070182;28;20024;-79
2022/04/25 08:44:58;;;;;;;31.13;19.02;;;;;;;8.45;88.61;100907.09;5068630;28;20082;-79
2022/04/25 08:47:28;;;;;;;33.05;20.05;;;;;;;8.46;89.62;100915.97;5068500;28;20446;-79
2022/04/25 08:49:57;;;;;;;31.10;20.08;;;;;;;8.45;89.42;100916.91;5070048;28;20040;-78
2022/04/25 08:52:22;;;;;;;33.47;21.70;;;;;;;8.44;89.30;100920.56;5068489;28;20025;-78
2022/04/25 08:54:49;;;;;;;33.83;21.70;;;;;;;8.43;89.77;100921.50;5068632;28;20052;-79
2022/04/25 08:57:16;;;;;;;31.88;19.30;;;;;;;8.42;89.95;100930.47;5068881;28;20020;-78
2022/04/25 08:59:43;;;;;;;35.00;21.15;;;;;;;8.38;89.84;100933.34;5071241;28;20392;-79
2022/04/25 09:02:10;;;;;;;34.50;22.02;;;;;;;8.35;90.11;100930.88;5055555;28;20025;-79
2022/04/25 09:04:35;;;;;;;31.35;19.75;;;;;;;8.33;89.74;100934.59;5073844;28;20040;-78
2022/04/25 09:07:00;;;;;;;35.50;21.30;;;;;;;8.31;89.59;100939.19;5073919;28;20052;-78
2022/04/25 09:09:26;;;;;;;32.90;19.55;;;;;;;8.30;90.09;100946.38;5072481;28;20040;-78
2022/04/25 09:12:10;;;;;;;33.58;20.73;;;;;;;8.30;90.08;100943.69;5063683;28;20037;-78
2022/04/25 09:14:40;;;;;;;35.88;21.58;;;;;;;8.31;90.90;100953.44;5053693;28;20436;-78
2022/04/25 09:17:06;;;;;;;36.45;22.45;;;;;;;8.30;90.96;100948.19;5062903;28;20554;-80
2022/04/25 09:19:33;;;;;;;32.13;20.75;;;;;;;8.31;90.79;100947.22;5094154;28;20051;-78
2022/04/25 09:21:59;;;;;;;32.00;21.00;;;;;;;8.31;91.31;100949.91;5092107;28;20024;-78
2022/04/25 09:24:27;;;;;;;34.05;21.45;;;;;;;8.34;91.28;100952.41;5093734;28;20036;-79
2022/04/25 09:27:09;;;;;;;32.63;22.00;;;;;;;8.35;91.47;100954.97;5093524;28;20077;-79
2022/04/25 09:29:36;;;;;;;36.30;21.38;;;;;;;8.34;91.06;100961.28;5093586;28;20472;-79
2022/04/25 09:32:02;;;;;;;33.40;22.02;;;;;;;8.33;91.01;100954.22;5093326;28;20433;-79
2022/04/25 09:37:17;;;;;;;34.65;21.83;;;;;;;8.35;91.96;100965.69;5093630;28;20043;-79
2022/04/25 09:39:42;;;;;;;34.22;22.10;;;;;;;8.37;92.13;100960.22;5091781;28;20044;-79
2022/04/25 09:42:08;;;;;;;36.03;23.13;;;;;;;8.36;91.89;100961.19;5092519;28;20536;-79
2022/04/25 09:44:54;;;;;;;35.45;23.10;;;;;;;8.38;90.95;100951.25;5091862;28;20047;-79
2022/04/25 09:47:30;;;;;;;33.47;21.65;;;;;;;8.38;91.93;100954.78;5093078;28;20026;-78
2022/04/25 09:49:59;;;;;;;35.63;23.65;;;;;;;8.37;91.39;100958.41;5093277;28;20082;-80
2022/04/25 09:52:24;;;;;;;34.27;22.87;;;;;;;8.40;92.06;100957.34;5091634;28;20051;-79
2022/04/25 09:54:50;;;;;;;33.72;21.67;;;;;;;8.44;91.90;100960.72;5093423;28;20024;-79
2022/04/25 09:57:29;;;;;;;35.92;21.35;;;;;;;8.43;91.23;100965.19;5091886;28;20085;-79
2022/04/25 09:59:56;;;;;;;36.15;22.08;;;;;;;8.45;91.72;100965.13;5091493;28;20020;-79
2022/04/25 10:02:22;;;;;;;32.65;21.30;;;;;;;8.45;91.52;100970.50;5070835;28;20062;-79
2022/04/25 10:04:47;;;;;;;33.40;20.40;;;;;;;8.45;91.67;100973.16;5070909;28;20039;-79
2022/04/25 10:07:13;;;;;;;33.90;21.50;;;;;;;8.47;92.33;100973.94;5070115;28;20086;-79
2022/04/25 10:09:40;;;;;;;34.55;21.77;;;;;;;8.50;92.02;100981.78;5071378;28;20037;-78
2022/04/25 10:12:06;;;;;;;31.45;20.83;;;;;;;8.55;92.34;100985.03;5072712;28;20451;-79
2022/04/25 10:14:31;;;;;;;36.92;21.30;;;;;;;8.56;92.63;100978.72;5072712;28;20033;-79
2022/04/25 10:16:58;;;;;;;32.65;19.80;;;;;;;8.54;91.82;100988.69;5075840;28;20031;-79
2022/04/25 10:19:25;;;;;;;33.08;20.73;;;;;;;8.55;91.79;100990.38;5091514;28;20035;-79
2022/04/25 10:21:52;;;;;;;32.83;20.23;;;;;;;8.57;92.36;100993.84;5091125;28;20024;-79
2022/04/25 10:24:20;;;;;;;30.90;18.95;;;;;;;8.59;92.58;100993.75;5092713;28;20058;-79
2022/04/25 10:26:48;;;;;;;30.17;18.45;;;;;;;8.60;92.18;100990.97;5091166;28;20031;-79
2022/04/25 10:29:18;;;;;;;31.70;18.90;;;;;;;8.60;91.68;100992.81;5092889;28;20036;-79
2022/04/25 10:31:45;;;;;;;31.60;19.60;;;;;;;8.65;92.81;100999.56;5079541;28;20384;-80
2022/04/25 10:34:14;;;;;;;28.98;17.83;;;;;;;8.62;91.78;100999.75;5052143;28;20025;-79
2022/04/25 10:36:39;;;;;;;28.90;17.75;;;;;;;8.67;92.63;101003.03;5052161;28;20052;-79
2022/04/25 10:39:27;;;;;;;31.88;20.52;;;;;;;8.73;92.24;101008.00;5052338;28;20025;-79
2022/04/25 10:44:36;;;;;;;31.48;19.35;;;;;;;8.82;92.24;101017.28;5052109;28;20055;-79
2022/04/25 10:47:13;;;;;;;29.90;18.15;;;;;;;8.83;90.64;101018.13;5058814;28;20032;-79
2022/04/25 10:49:58;;;;;;;28.55;18.08;;;;;;;8.81;90.83;101012.88;5092433;28;20113;-79
2022/04/25 10:52:52;;;;;;;28.50;17.63;;;;;;;8.81;90.82;101022.72;5090632;28;20105;-79
2022/04/25 10:55:31;;;;;;;29.17;18.20;;;;;;;8.82;90.76;101027.13;5092062;28;20024;-79
2022/04/25 10:58:03;;;;;;;;;;;;;;;8.87;89.07;101019.66;5092838;28;20141;-79
2022/04/25 11:00:34;;;;;;;28.58;17.83;;;;;;;8.78;91.36;101023.78;5091891;28;19960;-79
2022/04/25 11:03:27;;;;;;;28.25;16.30;;;;;;;8.79;90.53;101024.66;5091692;28;20032;-79
2022/04/25 11:06:03;;;;;;;31.88;19.45;;;;;;;8.78;91.13;101021.09;5090826;28;20095;-79
2022/04/25 11:08:36;;;;;;;29.70;17.27;;;;;;;8.76;91.36;101028.38;5091885;28;20103;-79
2022/04/25 11:11:04;;;;;;;29.13;18.33;;;;;;;8.79;92.27;101027.34;5088495;28;20021;-79
2022/04/25 11:14:01;;;;;;;31.17;19.50;;;;;;;8.80;92.12;101026.34;5071573;28;20027;-79
2022/04/25 11:16:28;;;;;;;31.15;18.88;;;;;;;8.83;92.23;101029.72;5067980;28;20115;-79
2022/04/25 11:19:21;;;;;;;29.27;17.42;;;;;;;8.90;92.81;101035.53;5091451;28;20020;-79
2022/04/25 11:21:49;;;;;;;29.95;17.63;;;;;;;8.87;91.29;101035.75;5074456;28;20433;-80
2022/04/25 11:24:35;;;;;;;30.35;17.50;;;;;;;8.88;91.21;101034.78;5091073;28;20408;-79
2022/04/25 11:27:02;;;;;;;26.77;15.82;;;;;;;8.90;92.53;101040.91;5091546;28;20065;-79
2022/04/25 11:29:28;;;;;;;28.77;16.67;;;;;;;8.87;90.38;101039.31;5091251;28;20407;-79
2022/04/25 11:32:26;;;;;;;29.65;17.20;;;;;;;8.86;90.42;101045.59;5089736;28;20027;-80
2022/04/25 11:34:52;;;;;;;27.13;15.18;;;;;;;8.83;90.09;101051.16;5090078;28;20153;-79
2022/04/25 11:37:19;;;;;;;27.80;16.15;;;;;;;8.83;90.44;101051.16;5091339;28;20036;-79
2022/04/25 11:39:55;;;;;;;28.70;16.95;;;;;;;8.80;90.49;101050.47;5091140;28;20056;-79
2022/04/25 11:42:20;;;;;;;28.00;15.38;;;;;;;8.80;91.05;101055.84;5073038;28;20479;-79
2022/04/25 11:44:45;;;;;;;29.10;17.13;;;;;;;8.82;91.86;101053.94;5091069;28;20030;-79
2022/04/25 11:47:11;;;;;;;30.00;17.13;;;;;;;8.87;93.30;101050.03;5079935;28;20094;-79
2022/04/25 11:49:39;;;;;;;36.53;17.00;;;;;;;8.93;91.24;101062.16;5049409;28;20054;-79